Time;durP1;ratioP1;P1;durP2;ratioP2;P2;SDS_P1;SDS_P2;PMS_P1;PMS_P2;Temp;Humidity;BMP_temperature;BMP_pressure;BME280_temperature;BME280_humidity;BME280_pressure;Samples;Min_cycle;Max_cycle;Signal;HPM_P1;HPM_P2
2022/01/21 00:01:48;;;;;;;;;;;;;;;-0.26;100.00;101998.28;5014751;28;20375;-71
2022/01/21 00:04:35;;;;;;;;;;;;;;;-0.23;100.00;102003.50;5014474;28;19924;-71
2022/01/21 00:07:18;;;;;;;;;;;;;;;-0.22;100.00;101992.94;5013356;28;19924;-71
2022/01/21 00:10:03;;;;;;;;;;;;;;;-0.25;100.00;101997.44;5013548;28;19932;-71
2022/01/21 00:12:52;;;;;;;;;;;;;;;-0.28;100.00;102000.09;5013542;28;19928;-72
2022/01/21 00:15:35;;;;;;;;;;;;;;;-0.41;100.00;101993.41;5013503;28;20032;-71
2022/01/21 00:18:20;;;;;;;;;;;;;;;-0.42;100.00;101991.69;5014211;28;19988;-71
2022/01/21 00:30:14;;;;;;;;;;;;;;;-0.65;100.00;101993.97;5013108;28;20407;-71
2022/01/21 00:32:58;;;;;;;;;;;;;;;-0.70;100.00;101993.19;5014208;28;19923;-71
2022/01/21 00:35:42;;;;;;;;;;;;;;;-0.85;100.00;101996.13;5014167;28;20056;-71
2022/01/21 00:38:28;;;;;;;;;;;;;;;-0.81;100.00;102003.91;5014027;28;20294;-71
2022/01/21 00:41:17;;;;;;;;;;;;;;;-0.95;100.00;102005.06;5013080;28;20365;-71
2022/01/21 00:44:00;;;;;;;;;;;;;;;-1.02;100.00;102003.44;5012990;28;20017;-71
2022/01/21 00:46:44;;;;;;;;;;;;;;;-0.98;100.00;102007.72;5012728;28;19977;-71
2022/01/21 00:49:28;;;;;;;;;;;;;;;-0.98;100.00;102005.09;5013635;28;19924;-71
2022/01/21 00:52:12;;;;;;;;;;;;;;;-0.97;100.00;102012.06;5014113;28;19925;-71
2022/01/21 00:54:56;;;;;;;;;;;;;;;-0.99;100.00;102022.56;5013706;28;19980;-71
2022/01/21 00:57:40;;;;;;;;;;;;;;;-1.01;100.00;102013.91;5013595;28;19987;-71
2022/01/21 01:00:24;;;;;;;;;;;;;;;-1.04;100.00;102020.94;5013509;28;19968;-71
2022/01/21 01:03:08;;;;;;;;;;;;;;;-1.05;100.00;102016.59;5012495;28;19924;-72
2022/01/21 01:05:52;;;;;;;;;;;;;;;-1.16;100.00;102029.88;5013619;28;20067;-72
2022/01/21 01:08:36;;;;;;;;;;;;;;;-1.15;100.00;102028.13;5012710;28;19926;-71
2022/01/21 01:20:49;;;;;;;;;;;;;;;-0.98;100.00;102039.13;5012658;28;20451;-72
2022/01/21 01:24:00;;;;;;;;;;;;;;;-1.01;100.00;102040.06;5012520;28;19984;-71
2022/01/21 01:29:45;;;;;;;;;;;;;;;-1.00;100.00;102043.53;5012329;28;19929;-71
2022/01/21 01:32:30;;;;;;;;;;;;;;;-1.01;100.00;102044.44;5013426;28;20269;-71
2022/01/21 01:35:16;;;;;;;;;;;;;;;-0.99;100.00;102040.03;4998616;28;19924;-71
2022/01/21 01:40:59;;;;;;;;;;;;;;;-0.99;100.00;102047.88;5017686;28;19924;-71
2022/01/21 01:49:48;;;;;;;;;;;;;;;-1.05;100.00;102045.41;5016312;28;20407;-71
2022/01/21 01:52:32;;;;;;;;;;;;;;;-1.05;100.00;102050.63;5017162;28;19925;-71
2022/01/21 01:55:16;;;;;;;;;;;;;;;-1.01;100.00;102045.31;5015879;28;19925;-71
2022/01/21 01:58:00;;;;;;;;;;;;;;;-1.06;100.00;102038.44;5015751;28;19944;-71
2022/01/21 02:00:44;;;;;;;;;;;;;;;-1.05;100.00;102037.53;5016012;28;20427;-71
2022/01/21 02:03:28;;;;;;;;;;;;;;;-1.14;100.00;102028.09;5017013;28;20012;-71
2022/01/21 02:06:12;;;;;;;;;;;;;;;-1.17;100.00;102024.69;5001958;28;20432;-71
2022/01/21 02:08:56;;;;;;;;;;;;;;;-1.20;100.00;102029.97;5015630;28;19940;-70
2022/01/21 02:11:40;;;;;;;;;;;;;;;-1.22;100.00;102031.75;5001891;28;19932;-69
2022/01/21 02:14:31;;;;;;;;;;;;;;;-1.19;100.00;102031.69;5015546;28;19926;-72
2022/01/21 02:23:27;;;;;;;;;;;;;;;-1.28;100.00;102024.88;4971256;28;19923;-71
2022/01/21 02:26:11;;;;;;;;;;;;;;;-1.33;100.00;102025.84;5015228;28;20409;-70
2022/01/21 02:28:55;;;;;;;;;;;;;;;-1.33;100.00;102028.47;5016584;28;19967;-71
2022/01/21 02:31:39;;;;;;;;;;;;;;;-1.42;100.00;102042.59;5016138;28;19971;-72
2022/01/21 02:34:24;;;;;;;;;;;;;;;-1.46;100.00;102047.91;5015382;28;20435;-70
2022/01/21 02:37:08;;;;;;;;;;;;;;;-1.45;100.00;102049.63;5016022;28;19924;-70
2022/01/21 02:39:52;;;;;;;;;;;;;;;-1.36;100.00;102060.78;5016081;28;19940;-70
2022/01/21 02:42:36;;;;;;;;;;;;;;;-1.29;100.00;102051.94;5001093;28;19924;-70
2022/01/21 02:45:20;;;;;;;;;;;;;;;-1.23;100.00;102053.56;5015501;28;20403;-71
2022/01/21 02:48:07;;;;;;;;;;;;;;;-1.22;100.00;102064.03;5015525;28;19929;-71
2022/01/21 02:50:51;;;;;;;;;;;;;;;-1.29;100.00;102056.28;5014793;28;20431;-71
2022/01/21 02:54:03;;;;;;;;;;;;;;;-1.25;100.00;102055.38;5001144;28;19980;-71
2022/01/21 02:56:41;;;;;;;;;;;;;;;-1.30;100.00;102046.72;5015218;28;19924;-70
2022/01/21 02:59:26;;;;;;;;;;;;;;;-1.30;100.00;102054.56;5001337;28;20032;-72
2022/01/21 03:02:10;;;;;;;;;;;;;;;-1.35;100.00;102051.19;5014842;28;20010;-71
2022/01/21 03:05:03;;;;;;;;;;;;;;;-1.45;100.00;102055.69;5014571;28;19925;-71
2022/01/21 03:07:47;;;;;;;;;;;;;;;-1.44;100.00;102051.34;5015461;28;19944;-70
2022/01/21 03:10:31;;;;;;;;;;;;;;;-1.52;100.00;102061.94;5014654;28;19976;-71
2022/01/21 03:13:15;;;;;;;;;;;;;;;-1.59;100.00;102062.03;5001149;28;19972;-70
2022/01/21 03:15:59;;;;;;;;;;;;;;;-1.62;100.00;102062.09;5014300;28;19924;-72
2022/01/21 03:18:43;;;;;;;;;;;;;;;-1.70;100.00;102056.13;5015328;28;19975;-70
2022/01/21 03:21:27;;;;;;;;;;;;;;;-1.64;100.00;102074.34;5015532;28;19924;-71
2022/01/21 03:24:11;;;;;;;;;;;;;;;-1.67;100.00;102074.41;5000730;28;19975;-71
2022/01/21 03:26:55;;;;;;;;;;;;;;;-1.72;100.00;102076.22;5014393;28;20008;-71
2022/01/21 03:29:39;;;;;;;;;;;;;;;-1.80;100.00;102080.69;5014275;28;19948;-71
2022/01/21 03:32:23;;;;;;;;;;;;;;;-1.82;100.00;102075.50;5015137;28;19924;-70
2022/01/21 03:35:07;;;;;;;;;;;;;;;-1.84;100.00;102081.63;5015276;28;20020;-71
2022/01/21 03:37:51;;;;;;;;;;;;;;;-1.86;100.00;102079.03;5013844;28;19928;-71
2022/01/21 03:40:35;;;;;;;;;;;;;;;-1.89;100.00;102084.31;5014102;28;20055;-70
2022/01/21 03:43:19;;;;;;;;;;;;;;;-1.96;100.00;102076.59;5014119;28;20460;-70
2022/01/21 03:46:03;;;;;;;;;;;;;;;-1.99;100.00;102077.50;5014018;28;19924;-70
2022/01/21 03:48:49;;;;;;;;;;;;;;;-2.02;100.00;102080.16;5014824;28;20304;-71
2022/01/21 03:51:33;;;;;;;;;;;;;;;-2.00;100.00;102081.00;5014889;28;20017;-71
2022/01/21 03:54:17;;;;;;;;;;;;;;;-2.09;100.00;102075.91;5013645;28;19991;-71
2022/01/21 03:57:01;;;;;;;;;;;;;;;-2.05;100.00;102082.81;5014632;28;19983;-71
2022/01/21 03:59:45;;;;;;;;;;;;;;;-1.97;100.00;102080.09;5012741;28;20004;-71
2022/01/21 04:02:29;;;;;;;;;;;;;;;-2.01;100.00;102074.06;5014886;28;19925;-71
2022/01/21 04:05:13;;;;;;;;;;;;;;;-1.97;100.00;102077.47;5014493;28;19925;-71
2022/01/21 04:07:57;;;;;;;;;;;;;;;-2.00;100.00;102085.34;5013475;28;20016;-71
2022/01/21 04:10:42;;;;;;;;;;;;;;;-2.09;100.00;102086.34;5013563;28;20323;-71
2022/01/21 04:13:27;;;;;;;;;;;;;;;-2.07;100.00;102097.66;5013557;28;19996;-71
2022/01/21 04:16:10;;;;;;;;;;;;;;;-2.00;100.00;102095.81;5014227;28;19925;-71
2022/01/21 04:18:54;;;;;;;;;;;;;;;-1.94;100.00;102091.38;5014218;28;19944;-71
2022/01/21 04:21:38;;;;;;;;;;;;;;;-1.93;100.00;102097.44;5014965;28;19925;-70
2022/01/21 04:24:22;;;;;;;;;;;;;;;-1.95;100.00;102102.69;5013169;28;20288;-71
2022/01/21 04:27:06;;;;;;;;;;;;;;;-1.93;100.00;102102.69;5014107;28;19924;-71
2022/01/21 04:29:50;;;;;;;;;;;;;;;-1.93;100.00;102095.72;5014164;28;20010;-71
2022/01/21 04:32:34;;;;;;;;;;;;;;;-2.03;100.00;102095.84;5014223;28;20035;-71
2022/01/21 04:35:18;;;;;;;;;;;;;;;-1.99;100.00;102098.41;5013982;28;19975;-71
2022/01/21 04:38:05;;;;;;;;;;;;;;;-1.99;100.00;102108.84;5014603;28;20021;-70
2022/01/21 04:40:58;;;;;;;;;;;;;;;-1.97;100.00;102106.25;5013128;28;19926;-71
2022/01/21 04:49:48;;;;;;;;;;;;;;;-2.16;100.00;102099.53;5012959;28;20443;-71
2022/01/21 04:52:31;;;;;;;;;;;;;;;-2.18;100.00;102101.31;5012858;28;19979;-71
2022/01/21 04:55:15;;;;;;;;;;;;;;;-2.15;100.00;102106.47;4998981;28;19924;-71
2022/01/21 04:57:59;;;;;;;;;;;;;;;-2.18;100.00;102103.91;5013535;28;19940;-71
2022/01/21 05:00:43;;;;;;;;;;;;;;;-2.22;100.00;102102.22;5013051;28;20066;-71
2022/01/21 05:03:27;;;;;;;;;;;;;;;-2.14;100.00;102108.22;5013555;28;19924;-71
2022/01/21 05:06:11;;;;;;;;;;;;;;;-2.17;100.00;102108.25;5012589;28;20012;-71
2022/01/21 05:08:55;;;;;;;;;;;;;;;-2.20;100.00;102114.38;5012486;28;20015;-71
2022/01/21 05:11:40;;;;;;;;;;;;;;;-2.19;100.00;102116.09;5013107;28;20357;-70
2022/01/21 05:14:38;;;;;;;;;;;;;;;-2.20;100.00;102119.59;5013913;28;20017;-71
2022/01/21 05:17:23;;;;;;;;;;;;;;;-2.23;100.00;102124.88;5013403;28;19924;-71
2022/01/21 05:20:07;;;;;;;;;;;;;;;-2.26;100.00;102127.50;5013686;28;20063;-71
2022/01/21 05:22:50;;;;;;;;;;;;;;;-2.36;100.00;102132.88;5013014;28;20035;-72
2022/01/21 05:25:34;;;;;;;;;;;;;;;-2.30;100.00;102135.41;5012638;28;19924;-69
2022/01/21 05:28:18;;;;;;;;;;;;;;;-2.28;100.00;102144.97;5013464;28;20455;-70
2022/01/21 05:31:02;;;;;;;;;;;;;;;-2.36;100.00;102144.19;5013396;28;20000;-69
2022/01/21 05:33:46;;;;;;;;;;;;;;;-2.39;100.00;102151.22;5012384;28;19940;-70
2022/01/21 05:36:31;;;;;;;;;;;;;;;-2.36;100.00;102138.97;5013412;28;19925;-71
2022/01/21 05:39:15;;;;;;;;;;;;;;;-2.44;100.00;102134.72;4998591;28;19928;-70
2022/01/21 05:42:00;;;;;;;;;;;;;;;-2.43;100.00;102144.28;5011991;28;19925;-70
2022/01/21 05:47:28;;;;;;;;;;;;;;;-2.60;100.00;102159.28;5012959;28;19982;-70
2022/01/21 05:50:12;;;;;;;;;;;;;;;-2.63;100.00;102159.31;5011897;28;20016;-71
2022/01/21 05:52:56;;;;;;;;;;;;;;;-2.61;100.00;102157.53;5013266;28;20479;-71
2022/01/21 05:55:42;;;;;;;;;;;;;;;-2.60;100.00;102158.41;5012962;28;19972;-71
2022/01/21 05:58:26;;;;;;;;;;;;;;;-2.55;100.00;102161.84;5012443;28;20075;-71
2022/01/21 06:01:10;;;;;;;;;;;;;;;-2.46;100.00;102162.59;5012986;28;20078;-71
2022/01/21 06:03:54;;;;;;;;;;;;;;;-2.25;100.00;102163.22;4998279;28;20130;-70
2022/01/21 06:06:38;;;;;;;;;;;;;;;-2.07;100.00;102167.34;5012013;28;19924;-70
2022/01/21 06:09:21;;;;;;;;;;;;;;;-2.09;100.00;102163.91;4998206;28;20013;-70
2022/01/21 06:12:06;;;;;;;;;;;;;;;-2.06;100.00;102169.94;5011990;28;19984;-71
2022/01/21 06:14:50;;;;;;;;;;;;;;;-1.99;100.00;102176.81;5013330;28;19925;-71
2022/01/21 06:17:34;;;;;;;;;;;;;;;-1.97;100.00;102184.66;5011757;28;20052;-69
2022/01/21 06:20:18;;;;;;;;;;;;;;;-1.97;100.00;102195.09;5011956;28;19972;-70
2022/01/21 06:23:02;;;;;;;;;;;;;;;-1.96;100.00;102194.22;5013893;28;19924;-70
2022/01/21 06:25:46;;;;;;;;;;;;;;;-1.93;100.00;102202.88;5015565;28;20449;-70
2022/01/21 06:28:30;;;;;;;;;;;;;;;-1.92;100.00;102198.50;5015389;28;19996;-70
2022/01/21 06:31:14;;;;;;;;;;;;;;;-1.72;100.00;102186.91;5016427;28;19967;-70
2022/01/21 06:33:58;;;;;;;;;;;;;;;-1.68;100.00;102188.56;5001648;28;19928;-69
2022/01/21 06:36:42;;;;;;;;;;;;;;;-1.91;100.00;102184.53;5016118;28;19925;-71
2022/01/21 06:39:26;;;;;;;;;;;;;;;-1.91;100.00;102190.66;5015152;28;19925;-71
2022/01/21 06:42:10;;;;;;;;;;;;;;;-1.89;100.00;102190.59;5016391;28;19925;-71
2022/01/21 06:44:53;;;;;;;;;;;;;;;-1.83;100.00;102198.38;5015311;28;20028;-71
2022/01/21 06:47:37;;;;;;;;;;;;;;;-1.81;100.00;102204.44;5015918;28;19924;-69
2022/01/21 06:50:21;;;;;;;;;;;;;;;-1.83;100.00;102203.63;5015846;28;19979;-70
2022/01/21 06:53:05;;;;;;;;;;;;;;;-1.85;100.00;102205.38;5001317;28;19967;-70
2022/01/21 06:55:49;;;;;;;;;;;;;;;-1.73;100.00;102202.59;5015009;28;19923;-70
2022/01/21 06:58:33;;;;;;;;;;;;;;;-1.66;100.00;102205.09;5016079;28;19925;-71
2022/01/21 07:01:17;;;;;;;;;;;;;;;-1.53;100.00;102213.66;5001049;28;20381;-71
2022/01/21 07:04:01;;;;;;;;;;;;;;;-1.46;100.00;102216.16;5016198;28;19977;-70
2022/01/21 07:06:44;;;;;;;;;;;;;;;-1.49;100.00;102220.56;5014775;28;19924;-71
2022/01/21 07:09:28;;;;;;;;;;;;;;;-1.49;100.00;102215.31;5015766;28;19928;-71
2022/01/21 07:12:12;;;;;;;;;;;;;;;-1.50;100.00;102213.59;5014729;28;19971;-71
2022/01/21 07:14:56;;;;;;;;;;;;;;;-1.40;100.00;102215.19;5014761;28;19925;-71
2022/01/21 07:17:40;;;;;;;;;;;;;;;-1.37;100.00;102209.94;5014205;28;19924;-70
2022/01/21 07:20:24;;;;;;;;;;;;;;;-1.36;100.00;102209.06;5014593;28;20060;-71
2022/01/21 07:23:08;;;;;;;;;;;;;;;-1.32;100.00;102206.38;5014277;28;20503;-71
2022/01/21 07:25:52;;;;;;;;;;;;;;;-1.15;100.00;102211.34;5015703;28;19975;-70
2022/01/21 07:28:36;;;;;;;;;;;;;;;-0.99;100.00;102216.28;5015444;28;19921;-70
2022/01/21 07:31:20;;;;;;;;;;;;;;;-0.89;100.00;102224.84;5014258;28;19975;-71
2022/01/21 07:34:06;;;;;;;;;;;;;;;-0.82;100.00;102222.09;5015267;28;20360;-71
2022/01/21 07:36:50;;;;;;;;;;;;;;;-0.83;100.00;102236.06;5014256;28;20011;-71
2022/01/21 07:39:33;;;;;;;;;;;;;;;-0.75;100.00;102233.34;5000655;28;19924;-71
2022/01/21 07:42:17;;;;;;;;;;;;;;;-0.66;100.00;102238.44;5013943;28;19941;-70
2022/01/21 07:45:01;;;;;;;;;;;;;;;-0.65;100.00;102240.16;5014067;28;19933;-71
2022/01/21 07:47:45;;;;;;;;;;;;;;;-0.55;100.00;102239.09;5015197;28;19924;-71
2022/01/21 07:50:29;;;;;;;;;;;;;;;-0.65;100.00;102246.25;5013926;28;19929;-70
2022/01/21 07:53:12;;;;;;;;;;;;;;;-0.54;100.00;102243.44;5013964;28;19924;-71
2022/01/21 07:55:56;;;;;;;;;;;;;;;-0.60;100.00;102243.53;5013607;28;20064;-71
2022/01/21 07:58:40;;;;;;;;;;;;;;;-0.57;100.00;102239.13;5014654;28;19932;-71
2022/01/21 08:01:24;;;;;;;;;;;;;;;-0.47;100.00;102234.56;4999980;28;19932;-71
2022/01/21 08:04:09;;;;;;;;;;;;;;;-0.38;100.00;102226.53;5014816;28;20289;-71
2022/01/21 08:06:53;;;;;;;;;;;;;;;-0.30;100.00;102227.28;5013527;28;20387;-71
2022/01/21 08:09:37;;;;;;;;;;;;;;;-0.30;100.00;102229.88;5013579;28;19928;-71
2022/01/21 08:12:21;;;;;;;;;;;;;;;-0.24;100.00;102227.16;5014632;28;20424;-71
2022/01/21 08:15:05;;;;;;;;;;;;;;;-0.17;100.00;102224.38;5014569;28;20297;-71
2022/01/21 08:17:48;;;;;;;;;;;;;;;-0.11;100.00;102223.41;4999651;28;19988;-71
2022/01/21 08:20:32;;;;;;;;;;;;;;;-0.07;100.00;102236.41;5014509;28;19967;-71
2022/01/21 08:23:16;;;;;;;;;;;;;;;0.02;100.00;102231.00;4999538;28;19923;-71
2022/01/21 08:26:00;;;;;;;;;;;;;;;0.10;100.00;102235.19;5013104;28;19925;-71
2022/01/21 08:28:45;;;;;;;;;;;;;;;0.18;100.00;102235.88;5014309;28;20368;-71
2022/01/21 08:31:29;;;;;;;;;;;;;;;0.21;100.00;102237.59;5014319;28;19932;-71
2022/01/21 08:34:15;;;;;;;;;;;;;;;0.32;100.00;102227.75;5012272;28;21274;-71
2022/01/21 08:36:58;;;;;;;;;;;;;;;0.42;100.00;102235.34;5012914;28;20059;-70
2022/01/21 08:39:43;;;;;;;;;;;;;;;0.42;100.00;102248.47;5013851;28;19924;-71
2022/01/21 08:42:27;;;;;;;;;;;;;;;0.57;100.00;102249.91;5014209;28;19972;-71
2022/01/21 08:45:11;;;;;;;;;;;;;;;0.75;100.00;102250.34;5012820;28;19947;-71
2022/01/21 08:47:55;;;;;;;;;;;;;;;1.39;100.00;102253.16;5012888;28;19924;-71
2022/01/21 08:50:39;;;;;;;;;;;;;;;1.55;100.00;102233.47;5012869;28;19947;-71
2022/01/21 08:53:40;;;;;;;;;;;;;;;1.43;100.00;102220.63;5013936;28;19925;-70
2022/01/21 08:56:25;;;;;;;;;;;;;;;1.43;100.00;102220.63;5013546;28;19966;-70
2022/01/21 08:59:09;;;;;;;;;;;;;;;1.48;100.00;102218.78;5012793;28;19925;-69
2022/01/21 09:01:54;;;;;;;;;;;;;;;1.54;100.00;102234.34;5013542;28;20245;-71
2022/01/21 09:04:38;;;;;;;;;;;;;;;1.62;100.00;102235.03;5014076;28;19967;-71
2022/01/21 09:07:22;;;;;;;;;;;;;;;1.64;100.00;102233.22;5013493;28;19924;-72
2022/01/21 09:10:07;;;;;;;;;;;;;;;1.80;100.00;102231.91;5013622;28;19928;-71
2022/01/21 09:12:50;;;;;;;;;;;;;;;1.89;100.00;102249.19;5012395;28;20003;-70
2022/01/21 09:15:35;;;;;;;;;;;;;;;1.84;100.00;102246.69;5013821;28;20027;-71
2022/01/21 09:18:20;;;;;;;;;;;;;;;1.89;100.00;102250.06;5013622;28;20025;-71
2022/01/21 09:21:04;;;;;;;;;;;;;;;1.90;100.00;102245.66;5013312;28;20288;-70
2022/01/21 09:23:48;;;;;;;;;;;;;;;2.10;100.00;102244.22;5013836;28;19980;-70
2022/01/21 09:26:32;;;;;;;;;;;;;;;2.04;100.00;102248.75;5013337;28;20292;-71
2022/01/21 09:29:17;;;;;;;;;;;;;;;2.17;100.00;102253.63;5012450;28;19968;-71
2022/01/21 09:32:02;;;;;;;;;;;;;;;2.14;100.00;102256.34;5012229;28;19933;-71
2022/01/21 09:34:46;;;;;;;;;;;;;;;2.32;100.00;102257.59;5013380;28;19924;-71
2022/01/21 09:37:31;;;;;;;;;;;;;;;2.36;100.00;102260.09;5012227;28;19924;-71
2022/01/21 09:40:15;;;;;;;;;;;;;;;2.33;100.00;102262.81;5012304;28;19925;-71
2022/01/21 09:42:59;;;;;;;;;;;;;;;2.53;100.00;102269.22;5013101;28;19924;-71
2022/01/21 09:45:45;;;;;;;;;;;;;;;2.65;100.00;102273.25;5013311;28;19924;-71
2022/01/21 09:48:31;;;;;;;;;;;;;;;2.62;100.00;102276.00;5012312;28;19924;-72
2022/01/21 09:51:15;;;;;;;;;;;;;;;2.54;100.00;102284.09;5011958;28;20372;-71
2022/01/21 09:54:03;;;;;;;;;;;;;;;2.71;100.00;102275.72;5012217;28;19928;-71
2022/01/21 09:56:47;;;;;;;;;;;;;;;2.81;100.00;102293.81;5013442;28;19924;-71
2022/01/21 09:59:32;;;;;;;;;;;;;;;2.79;100.00;102293.00;5015484;28;19932;-72
2022/01/21 10:02:16;;;;;;;;;;;;;;;2.83;100.00;102296.41;5015979;28;19924;-70
2022/01/21 10:05:01;;;;;;;;;;;;;;;3.07;100.00;102291.25;5017183;28;19924;-71
2022/01/21 10:07:46;;;;;;;;;;;;;;;2.78;100.00;102298.31;5015775;28;19975;-69
2022/01/21 10:10:30;;;;;;;;;;;;;;;2.63;100.00;102293.50;5015737;28;20369;-71
2022/01/21 10:13:15;;;;;;;;;;;;;;;2.81;100.00;102293.81;5016899;28;20392;-71
2022/01/21 10:15:59;;;;;;;;;;;;;;;2.86;100.00;102294.56;5015446;28;19968;-72
2022/01/21 10:19:03;;;;;;;;;;;;;;;2.83;100.00;102291.16;5015699;28;19924;-70
2022/01/21 10:21:47;;;;;;;;;;;;;;;2.93;100.00;102303.13;5016743;28;20297;-71
2022/01/21 10:24:31;;;;;;;;;;;;;;;3.24;100.00;102290.72;5015616;28;20000;-72
2022/01/21 10:27:24;;;;;;;;;;;;;;;3.25;100.00;102295.06;5015297;28;19925;-72
2022/01/21 10:30:18;;;;;;;;;;;;;;;3.56;100.00;102285.22;5016507;28;19975;-71
2022/01/21 10:33:15;;;;;;;;;;;;;;;3.62;100.00;102290.28;5016473;28;19923;-71
2022/01/21 10:36:07;;;;;;;;;;;;;;;3.87;100.00;102280.63;5015190;28;19925;-72
2022/01/21 10:38:55;;;;;;;;;;;;;;;3.54;100.00;102281.78;5016880;28;20439;-71
2022/01/21 10:41:40;;;;;;;;;;;;;;;3.47;100.00;102275.00;5015390;28;19967;-70
2022/01/21 10:44:30;;;;;;;;;;;;;;;3.31;100.00;102273.75;5015222;28;19991;-71
2022/01/21 10:47:14;;;;;;;;;;;;;;;3.25;100.00;102276.63;5015970;28;19976;-70
2022/01/21 10:50:08;;;;;;;;;;;;;;;3.30;100.00;102272.91;5015935;28;19983;-71
2022/01/21 10:52:52;;;;;;;;;;;;;;;3.53;100.00;102266.88;5016063;28;19928;-71
2022/01/21 10:55:38;;;;;;;;;;;;;;;3.39;100.00;102256.78;5001488;28;19940;-70
2022/01/21 10:58:22;;;;;;;;;;;;;;;3.42;100.00;102272.50;5015836;28;20060;-71
2022/01/21 11:01:10;;;;;;;;;;;;;;;4.02;100.00;102261.59;5014943;28;20040;-71
2022/01/21 11:03:54;;;;;;;;;;;;;;;4.62;100.00;102254.03;5015136;28;19971;-71
2022/01/21 11:06:58;;;;;;;;;;;;;;;4.42;99.84;102259.22;5015782;28;19971;-71
2022/01/21 11:09:42;;;;;;;;;;;;;;;5.21;97.44;102264.84;5015405;28;19925;-71
2022/01/21 11:12:26;;;;;;;;;;;;;;;5.44;92.79;102267.38;5015828;28;19980;-71
2022/01/21 11:15:10;;;;;;;;;;;;;;;4.65;93.95;102256.56;5014517;28;19924;-71
2022/01/21 11:17:57;;;;;;;;;;;;;;;4.56;94.80;102249.00;5014768;28;20027;-71
2022/01/21 11:20:41;;;;;;;;;;;;;;;4.95;91.96;102246.50;5014666;28;19925;-71
2022/01/21 11:23:28;;;;;;;;;;;;;;;4.87;88.93;102254.81;5015643;28;20285;-71
2022/01/21 11:26:14;;;;;;;;;;;;;;;5.96;84.87;102252.84;5014308;28;19924;-71
2022/01/21 11:28:58;;;;;;;;;;;;;;;5.03;87.49;102251.50;5015774;28;19976;-71
2022/01/21 11:31:42;;;;;;;;;;;;;;;5.28;90.31;102253.09;5014622;28;19931;-70
2022/01/21 11:34:25;;;;;;;;;;;;;;;5.67;89.92;102235.53;5014760;28;19968;-71
2022/01/21 11:37:10;;;;;;;;;;;;;;;6.28;90.03;102247.81;5015084;28;19924;-71
2022/01/21 11:39:53;;;;;;;;;;;;;;;5.47;89.84;102240.81;5014314;28;19925;-71
2022/01/21 11:42:38;;;;;;;;;;;;;;;5.67;89.03;102232.91;5014328;28;19968;-71
2022/01/21 11:51:01;;;;;;;;;;;;;;;5.47;89.83;102238.19;5014162;28;20388;-71
2022/01/21 11:53:45;;;;;;;;;;;;;;;5.34;92.28;102244.03;5013976;28;20016;-70
2022/01/21 11:56:48;;;;;;;;;;;;;;;4.90;94.14;102242.31;5014740;28;19925;-71
2022/01/21 11:59:39;;;;;;;;;;;;;;;5.04;97.13;102240.84;5014901;28;19940;-71
2022/01/21 12:02:27;;;;;;;;;;;;;;;5.13;95.61;102242.28;5014832;28;20352;-71
2022/01/21 12:05:11;;;;;;;;;;;;;;;4.78;96.18;102236.69;5014050;28;19967;-71
2022/01/21 12:07:55;;;;;;;;;;;;;;;4.95;97.57;102232.44;5014238;28;20380;-71
2022/01/21 12:10:41;;;;;;;;;;;;;;;4.56;98.54;102227.88;5000281;28;19928;-70
2022/01/21 12:13:26;;;;;;;;;;;;;;;4.64;100.00;102231.06;5014024;28;19924;-70
2022/01/21 12:16:19;;;;;;;;;;;;;;;4.69;98.63;102226.47;5013790;28;19924;-71
2022/01/21 12:19:17;;;;;;;;;;;;;;;4.54;97.52;102221.78;5013595;28;19941;-71
2022/01/21 12:22:14;;;;;;;;;;;;;;;4.89;95.60;102216.81;5012596;28;19964;-70
2022/01/21 12:25:08;;;;;;;;;;;;;;;5.01;97.25;102216.34;4999649;28;19996;-72
2022/01/21 12:28:11;;;;;;;;;;;;;;;5.30;93.34;102214.22;4999245;28;19924;-71
2022/01/21 12:30:55;;;;;;;;;;;;;;;5.40;94.19;102201.44;5014245;28;20025;-71
2022/01/21 12:36:51;;;;;;;;;;;;;;;5.49;86.07;102207.22;5014032;28;19928;-71
2022/01/21 12:39:53;;;;;;;;;;;;;;;4.62;92.02;102198.56;5013125;28;19925;-71
2022/01/21 12:42:37;;;;;;;;;;;;;;;4.69;94.94;102202.69;5014207;28;19963;-71
2022/01/21 12:45:21;;;;;;;;;;;;;;;4.49;95.86;102211.38;5013193;28;19928;-70
2022/01/21 12:48:13;;;;;;;;;;;;;;;4.67;97.49;102212.47;5013098;28;20446;-70
2022/01/21 12:50:59;;;;;;;;;;;;;;;4.50;96.82;102220.19;5012720;28;19948;-71
2022/01/21 12:56:59;;;;;;;;;;;;;;;4.67;97.17;102204.53;5013625;28;19925;-71
2022/01/21 12:59:43;;;;;;;;;;;;;;;5.00;98.19;102201.38;5012972;28;19995;-71
2022/01/21 13:02:28;;;;;;;;;;;;;;;5.49;97.67;102196.66;4998961;28;19976;-70
2022/01/21 13:05:30;;;;;;;;;;;;;;;5.60;92.36;102197.03;5012624;28;19928;-70
2022/01/21 13:08:17;;;;;;;;;;;;;;;5.92;87.80;102191.22;5012810;28;19925;-70
2022/01/21 13:11:11;;;;;;;;;;;;;;;6.07;85.64;102201.09;4998973;28;20384;-70
2022/01/21 13:17:12;;;;;;;;;;;;;;;6.75;82.60;102206.72;5013188;28;19939;-71
2022/01/21 13:19:56;;;;;;;;;;;;;;;6.92;77.90;102198.81;5013741;28;20071;-71
2022/01/21 13:22:41;;;;;;;;;;;;;;;6.78;77.27;102201.25;5012837;28;19940;-71
2022/01/21 13:25:26;;;;;;;;;;;;;;;6.49;77.10;102199.16;5013531;28;19971;-71
2022/01/21 13:28:10;;;;;;;;;;;;;;;6.12;81.69;102199.13;5013317;28;19928;-70
2022/01/21 13:31:00;;;;;;;;;;;;;;;5.05;86.28;102204.72;5012227;28;19993;-70
2022/01/21 13:33:44;;;;;;;;;;;;;;;4.98;88.96;102198.81;5018989;28;19987;-70
2022/01/21 13:36:35;;;;;;;;;;;;;;;4.94;89.65;102197.22;5018802;28;19948;-70
2022/01/21 13:39:22;;;;;;;;;;;;;;;5.02;92.14;102195.13;5019806;28;19933;-70
2022/01/21 13:42:18;;;;;;;;;;;;;;;4.75;92.94;102203.31;5019784;28;19964;-70
2022/01/21 13:45:05;;;;;;;;;;;;;;;4.83;95.02;102195.06;5020141;28;19975;-71
2022/01/21 13:47:49;;;;;;;;;;;;;;;4.77;95.15;102192.69;5018664;28;19975;-70
2022/01/21 13:50:33;;;;;;;;;;;;;;;4.74;95.93;102195.44;5018919;28;20289;-71
2022/01/21 13:53:17;;;;;;;;;;;;;;;4.60;96.39;102200.41;5020136;28;20265;-70
2022/01/21 13:56:02;;;;;;;;;;;;;;;4.67;97.02;102197.47;5020298;28;19924;-71
2022/01/21 13:58:46;;;;;;;;;;;;;;;4.74;98.39;102193.66;5018563;28;20299;-69
2022/01/21 14:01:30;;;;;;;;;;;;;;;4.70;98.43;102191.19;5019015;28;20388;-71
2022/01/21 14:04:15;;;;;;;;;;;;;;;4.82;98.41;102196.88;5005027;28;19924;-71
2022/01/21 14:06:58;;;;;;;;;;;;;;;4.85;97.02;102195.84;5018745;28;19975;-70
2022/01/21 14:09:42;;;;;;;;;;;;;;;5.05;95.27;102200.28;5019820;28;19975;-71
2022/01/21 14:12:28;;;;;;;;;;;;;;;5.48;94.63;102194.94;5019997;28;19929;-69
2022/01/21 14:15:12;;;;;;;;;;;;;;;6.11;89.39;102191.22;5019213;28;19971;-70
2022/01/21 14:17:56;;;;;;;;;;;;;;;6.26;85.42;102186.09;5018969;28;19940;-70
2022/01/21 14:20:40;;;;;;;;;;;;;;;6.20;84.85;102199.63;5018618;28;19995;-70
2022/01/21 14:23:25;;;;;;;;;;;;;;;5.70;86.70;102190.41;5018476;28;19940;-70
2022/01/21 14:26:10;;;;;;;;;;;;;;;5.38;89.89;102198.88;5005130;28;19998;-71
2022/01/21 14:28:55;;;;;;;;;;;;;;;5.36;91.62;102192.78;5018716;28;20372;-71
2022/01/21 14:31:44;;;;;;;;;;;;;;;5.35;91.79;102193.72;5018380;28;19929;-70
2022/01/21 14:34:28;;;;;;;;;;;;;;;5.39;93.36;102200.59;5018333;28;20340;-70
2022/01/21 14:37:14;;;;;;;;;;;;;;;5.21;92.15;102201.38;5019033;28;19927;-71
2022/01/21 14:39:59;;;;;;;;;;;;;;;5.40;94.09;102190.88;5018438;28;20454;-70
2022/01/21 14:42:43;;;;;;;;;;;;;;;5.18;93.32;102183.00;5018370;28;19999;-70
2022/01/21 14:45:27;;;;;;;;;;;;;;;5.04;95.33;102187.97;5014426;28;19940;-70
2022/01/21 14:48:13;;;;;;;;;;;;;;;4.98;96.56;102193.53;5016177;28;19988;-70
2022/01/21 14:51:06;;;;;;;;;;;;;;;5.12;97.84;102185.88;5016108;28;19932;-71
2022/01/21 14:53:54;;;;;;;;;;;;;;;5.09;98.30;102190.44;5016179;28;20395;-70
2022/01/21 14:56:38;;;;;;;;;;;;;;;5.10;98.26;102190.38;5015968;28;19924;-71
2022/01/21 14:59:21;;;;;;;;;;;;;;;5.01;98.26;102193.41;5015022;28;20403;-70
2022/01/21 15:02:06;;;;;;;;;;;;;;;5.03;97.96;102193.34;5016042;28;20432;-70
2022/01/21 15:04:53;;;;;;;;;;;;;;;4.93;98.57;102198.13;5014863;28;19991;-71
2022/01/21 15:07:38;;;;;;;;;;;;;;;4.95;98.96;102192.81;5016157;28;20392;-69